Time;durP1;ratioP1;P1;durP2;ratioP2;P2;SDS_P1;SDS_P2;PMS_P1;PMS_P2;Temp;Humidity;BMP_temperature;BMP_pressure;BME280_temperature;BME280_humidity;BME280_pressure;Samples;Min_cycle;Max_cycle;Signal;HPM_P1;HPM_P2
2024/01/24 00:00:32;;;;;;;0.00;0.00;;;;;;;;;;4996909;28;20030;-83
2024/01/24 00:02:58;;;;;;;0.00;0.00;;;;;;;;;;5012134;28;20030;-83
2024/01/24 00:05:23;;;;;;;0.00;0.00;;;;;;;;;;4994610;28;20425;-83
2024/01/24 00:07:50;;;;;;;0.00;0.00;;;;;;;;;;4996424;28;20170;-83
2024/01/24 00:10:15;;;;;;;0.00;0.00;;;;;;;;;;5011994;28;20034;-83
2024/01/24 00:12:41;;;;;;;0.00;0.00;;;;;;;;;;5017300;28;20028;-83
2024/01/24 00:15:07;;;;;;;0.00;0.00;;;;;;;;;;5016964;28;20026;-83
2024/01/24 00:17:32;;;;;;;0.00;0.00;;;;;;;;;;5007558;28;20034;-83
2024/01/24 00:19:58;;;;;;;0.00;0.00;;;;;;;;;;4995606;28;20451;-83
2024/01/24 00:22:23;;;;;;;0.00;0.00;;;;;;;;;;4978201;28;20037;-84
2024/01/24 00:24:49;;;;;;;0.00;0.00;;;;;;;;;;4995205;28;20069;-83
2024/01/24 00:27:14;;;;;;;0.00;0.00;;;;;;;;;;4995341;28;20038;-83
2024/01/24 00:29:40;;;;;;;0.00;0.00;;;;;;;;;;4996577;28;20345;-83
2024/01/24 00:32:05;;;;;;;0.00;0.00;;;;;;;;;;4991103;28;20088;-83
2024/01/24 00:34:31;;;;;;;0.00;0.00;;;;;;;;;;4993190;28;20470;-83
2024/01/24 00:36:56;;;;;;;0.00;0.00;;;;;;;;;;4993676;28;20417;-83
2024/01/24 00:39:22;;;;;;;0.00;0.00;;;;;;;;;;4995430;28;20041;-83
2024/01/24 00:41:47;;;;;;;0.00;0.00;;;;;;;;;;4994661;28;20200;-83
2024/01/24 00:44:13;;;;;;;0.00;0.00;;;;;;;;;;5011052;28;20446;-83
2024/01/24 00:46:39;;;;;;;0.00;0.00;;;;;;;;;;4994459;28;20030;-83
2024/01/24 00:49:08;;;;;;;0.00;0.00;;;;;;;;;;5006715;28;20172;-83
2024/01/24 00:51:34;;;;;;;0.00;0.00;;;;;;;;;;5017853;28;20163;-83
2024/01/24 00:53:59;;;;;;;0.00;0.00;;;;;;;;;;5017371;28;20112;-83
2024/01/24 00:56:25;;;;;;;0.00;0.00;;;;;;;;;;5035333;28;20036;-82
2024/01/24 00:58:50;;;;;;;0.00;0.00;;;;;;;;;;5001366;28;20083;-83
2024/01/24 01:01:16;;;;;;;0.00;0.00;;;;;;;;;;5017696;28;20033;-82
2024/01/24 01:03:41;;;;;;;0.00;0.00;;;;;;;;;;5001199;28;20030;-82
2024/01/24 01:06:07;;;;;;;0.00;0.00;;;;;;;;;;5035362;28;20508;-83
2024/01/24 01:08:32;;;;;;;0.00;0.00;;;;;;;;;;5034488;28;20075;-83
2024/01/24 01:10:58;;;;;;;0.00;0.00;;;;;;;;;;5001199;28;20029;-83
2024/01/24 01:13:24;;;;;;;0.00;0.00;;;;;;;;;;5035433;28;20091;-84
2024/01/24 01:15:50;;;;;;;0.00;0.00;;;;;;;;;;5037032;28;20029;-83
2024/01/24 01:18:15;;;;;;;0.00;0.00;;;;;;;;;;5000848;28;20064;-82
2024/01/24 01:20:41;;;;;;;0.00;0.00;;;;;;;;;;5000403;28;20032;-82
2024/01/24 01:23:06;;;;;;;0.00;0.00;;;;;;;;;;5001027;28;20068;-83
2024/01/24 01:25:32;;;;;;;0.00;0.00;;;;;;;;;;5032873;28;20029;-85
2024/01/24 01:27:57;;;;;;;0.00;0.00;;;;;;;;;;5017061;28;20431;-83
2024/01/24 01:30:23;;;;;;;0.00;0.00;;;;;;;;;;5017138;28;20105;-83
2024/01/24 01:32:49;;;;;;;0.00;0.00;;;;;;;;;;4980223;28;20041;-83
2024/01/24 01:35:15;;;;;;;0.00;0.00;;;;;;;;;;4995579;28;20028;-82
2024/01/24 01:37:40;;;;;;;0.00;0.00;;;;;;;;;;5012888;28;20026;-83
2024/01/24 01:40:08;;;;;;;0.00;0.00;;;;;;;;;;5028047;28;20028;-83
2024/01/24 01:42:34;;;;;;;0.00;0.00;;;;;;;;;;5016571;28;20033;-83
2024/01/24 01:44:59;;;;;;;0.00;0.00;;;;;;;;;;5000460;28;20032;-83
2024/01/24 01:47:25;;;;;;;0.00;0.00;;;;;;;;;;5016797;28;20048;-82
2024/01/24 01:49:50;;;;;;;0.00;0.00;;;;;;;;;;5016532;28;20041;-82
2024/01/24 01:52:16;;;;;;;0.00;0.00;;;;;;;;;;5016465;28;20116;-82
2024/01/24 01:54:42;;;;;;;0.00;0.00;;;;;;;;;;5016281;28;20163;-83
2024/01/24 01:57:10;;;;;;;0.00;0.00;;;;;;;;;;5016715;28;20021;-83
2024/01/24 01:59:36;;;;;;;0.00;0.00;;;;;;;;;;5033954;28;20031;-83
2024/01/24 02:02:01;;;;;;;0.00;0.00;;;;;;;;;;5016159;28;20033;-83
2024/01/24 02:04:27;;;;;;;0.00;0.00;;;;;;;;;;5032910;28;20112;-83
2024/01/24 02:06:55;;;;;;;0.00;0.00;;;;;;;;;;5016770;28;20041;-83
2024/01/24 02:09:21;;;;;;;0.00;0.00;;;;;;;;;;5015389;28;20120;-83
2024/01/24 02:11:46;;;;;;;0.00;0.00;;;;;;;;;;5016056;28;20437;-83
2024/01/24 02:14:12;;;;;;;0.00;0.00;;;;;;;;;;4999777;28;20029;-83
2024/01/24 02:16:38;;;;;;;0.00;0.00;;;;;;;;;;5016340;28;20039;-83
2024/01/24 02:19:04;;;;;;;0.00;0.00;;;;;;;;;;5033865;28;20059;-83
2024/01/24 02:21:30;;;;;;;0.00;0.00;;;;;;;;;;5028777;28;20458;-83
2024/01/24 02:23:56;;;;;;;0.00;0.00;;;;;;;;;;5014096;28;20112;-83
2024/01/24 02:26:21;;;;;;;0.00;0.00;;;;;;;;;;5001032;28;20446;-83
2024/01/24 02:28:47;;;;;;;0.00;0.00;;;;;;;;;;5033145;28;20033;-83
2024/01/24 02:31:12;;;;;;;0.00;0.00;;;;;;;;;;5033771;28;20029;-82
2024/01/24 02:33:38;;;;;;;0.00;0.00;;;;;;;;;;5033927;28;20577;-83
2024/01/24 02:36:04;;;;;;;0.00;0.00;;;;;;;;;;5029910;28;20147;-83
2024/01/24 02:38:29;;;;;;;0.00;0.00;;;;;;;;;;5033416;28;20029;-82
2024/01/24 02:40:55;;;;;;;0.00;0.00;;;;;;;;;;5015490;28;20041;-82
2024/01/24 02:43:21;;;;;;;0.00;0.00;;;;;;;;;;5032973;28;20034;-83
2024/01/24 02:45:46;;;;;;;0.00;0.00;;;;;;;;;;5015500;28;20581;-82
2024/01/24 02:48:12;;;;;;;0.00;0.00;;;;;;;;;;5033116;28;20029;-83
2024/01/24 02:50:37;;;;;;;0.00;0.00;;;;;;;;;;5033269;28;20111;-83
2024/01/24 02:53:03;;;;;;;0.00;0.00;;;;;;;;;;5015526;28;20048;-83
2024/01/24 02:55:29;;;;;;;0.00;0.00;;;;;;;;;;5033165;28;20051;-83
2024/01/24 02:57:55;;;;;;;0.00;0.00;;;;;;;;;;5033000;28;20021;-83
2024/01/24 03:00:20;;;;;;;0.00;0.00;;;;;;;;;;5015510;28;20104;-82
2024/01/24 03:02:46;;;;;;;0.00;0.00;;;;;;;;;;5015744;28;20033;-83
2024/01/24 03:05:11;;;;;;;0.00;0.00;;;;;;;;;;5015759;28;20083;-83
2024/01/24 03:07:37;;;;;;;0.00;0.00;;;;;;;;;;5034067;28;20340;-83
2024/01/24 03:10:04;;;;;;;0.00;0.00;;;;;;;;;;5022444;28;20029;-83
2024/01/24 03:12:30;;;;;;;0.00;0.00;;;;;;;;;;5024586;28;20363;-83
2024/01/24 03:14:55;;;;;;;0.00;0.00;;;;;;;;;;5020289;28;20026;-83
2024/01/24 03:17:21;;;;;;;0.00;0.00;;;;;;;;;;4970478;28;20040;-82
2024/01/24 03:19:46;;;;;;;0.00;0.00;;;;;;;;;;5003960;28;20029;-83
2024/01/24 03:22:12;;;;;;;0.00;0.00;;;;;;;;;;5042195;28;20047;-82
2024/01/24 03:24:38;;;;;;;0.00;0.00;;;;;;;;;;5009651;28;20028;-83
2024/01/24 03:27:04;;;;;;;0.00;0.00;;;;;;;;;;5061806;28;20044;-82
2024/01/24 03:29:29;;;;;;;0.00;0.00;;;;;;;;;;5017994;28;20026;-82
2024/01/24 03:31:55;;;;;;;0.00;0.00;;;;;;;;;;5015258;28;20057;-82
2024/01/24 03:34:21;;;;;;;0.00;0.00;;;;;;;;;;5028167;28;20517;-83
2024/01/24 03:36:47;;;;;;;0.00;0.00;;;;;;;;;;5020903;28;20033;-83
2024/01/24 03:39:13;;;;;;;0.00;0.00;;;;;;;;;;5023885;28;20030;-82
2024/01/24 03:41:40;;;;;;;0.00;0.00;;;;;;;;;;5039616;28;20029;-82
2024/01/24 03:44:06;;;;;;;0.00;0.00;;;;;;;;;;5039458;28;20026;-83
2024/01/24 03:46:31;;;;;;;0.00;0.00;;;;;;;;;;5039102;28;20029;-83
2024/01/24 03:48:57;;;;;;;0.00;0.00;;;;;;;;;;5001816;28;20132;-83
2024/01/24 03:51:23;;;;;;;0.00;0.00;;;;;;;;;;5001248;28;20173;-83
2024/01/24 03:53:49;;;;;;;0.00;0.00;;;;;;;;;;5018177;28;20099;-83
2024/01/24 03:56:15;;;;;;;0.00;0.00;;;;;;;;;;5017547;28;20475;-83
2024/01/24 03:58:41;;;;;;;0.00;0.00;;;;;;;;;;5017316;28;20038;-82
2024/01/24 04:01:06;;;;;;;0.00;0.00;;;;;;;;;;5001051;28;20463;-82
2024/01/24 04:03:32;;;;;;;0.00;0.00;;;;;;;;;;5001075;28;20041;-83
2024/01/24 04:05:57;;;;;;;0.00;0.00;;;;;;;;;;5001302;28;20037;-83
2024/01/24 04:08:23;;;;;;;0.00;0.00;;;;;;;;;;5018387;28;20036;-83
2024/01/24 04:10:48;;;;;;;0.00;0.00;;;;;;;;;;5018248;28;20037;-83
2024/01/24 04:13:14;;;;;;;0.00;0.00;;;;;;;;;;5018658;28;20501;-83
2024/01/24 04:15:40;;;;;;;0.00;0.00;;;;;;;;;;4985245;28;20061;-83
2024/01/24 04:18:05;;;;;;;0.00;0.00;;;;;;;;;;5017300;28;20030;-83
2024/01/24 04:20:31;;;;;;;0.00;0.00;;;;;;;;;;5013197;28;20354;-83
2024/01/24 04:22:56;;;;;;;0.00;0.00;;;;;;;;;;4995517;28;20037;-83
2024/01/24 04:25:22;;;;;;;0.00;0.00;;;;;;;;;;4996947;28;20026;-84
2024/01/24 04:27:48;;;;;;;0.00;0.00;;;;;;;;;;4998127;28;20030;-81
2024/01/24 04:30:13;;;;;;;0.00;0.00;;;;;;;;;;5013998;28;20026;-81
2024/01/24 04:32:39;;;;;;;0.00;0.00;;;;;;;;;;5013391;28;20037;-81
2024/01/24 04:35:05;;;;;;;0.00;0.00;;;;;;;;;;5014778;28;20026;-82
2024/01/24 04:37:30;;;;;;;0.00;0.00;;;;;;;;;;5014784;28;20447;-81
2024/01/24 04:39:56;;;;;;;0.00;0.00;;;;;;;;;;5009959;28;20033;-81
2024/01/24 04:42:21;;;;;;;0.00;0.00;;;;;;;;;;5013970;28;20041;-81
2024/01/24 04:44:47;;;;;;;0.00;0.00;;;;;;;;;;5014826;28;20080;-81
2024/01/24 04:47:15;;;;;;;0.00;0.00;;;;;;;;;;5013424;28;20142;-81
2024/01/24 04:49:41;;;;;;;0.00;0.00;;;;;;;;;;4967079;28;1658039;-82
2024/01/24 04:52:07;;;;;;;0.00;0.00;;;;;;;;;;5035340;28;20056;-81
2024/01/24 04:54:34;;;;;;;0.00;0.00;;;;;;;;;;5000758;28;20038;-82
2024/01/24 04:57:01;;;;;;;0.00;0.00;;;;;;;;;;5035181;28;20086;-82
2024/01/24 04:59:26;;;;;;;0.00;0.00;;;;;;;;;;5035539;28;20052;-82
2024/01/24 05:01:53;;;;;;;0.00;0.00;;;;;;;;;;5035234;28;20442;-82
2024/01/24 05:04:18;;;;;;;0.00;0.00;;;;;;;;;;5035116;28;20045;-82
2024/01/24 05:06:44;;;;;;;0.00;0.00;;;;;;;;;;5017375;28;20068;-82
2024/01/24 05:09:09;;;;;;;0.00;0.00;;;;;;;;;;5014571;28;20354;-82
2024/01/24 05:11:35;;;;;;;0.00;0.00;;;;;;;;;;4985105;28;20025;-82
2024/01/24 05:14:01;;;;;;;0.00;0.00;;;;;;;;;;5017062;28;20135;-82
2024/01/24 05:16:30;;;;;;;0.00;0.00;;;;;;;;;;5017295;28;20120;-82
2024/01/24 05:18:55;;;;;;;0.00;0.00;;;;;;;;;;5017238;28;20025;-82
2024/01/24 05:21:21;;;;;;;0.00;0.00;;;;;;;;;;5017287;28;20034;-82
2024/01/24 05:23:47;;;;;;;0.00;0.00;;;;;;;;;;5007047;28;20028;-82
2024/01/24 05:26:12;;;;;;;0.00;0.00;;;;;;;;;;4965107;28;20451;-82
2024/01/24 05:28:40;;;;;;;0.00;0.00;;;;;;;;;;4997350;28;20470;-82
2024/01/24 05:31:05;;;;;;;0.00;0.00;;;;;;;;;;4981313;28;20057;-82
2024/01/24 05:33:31;;;;;;;0.00;0.00;;;;;;;;;;5004211;28;20075;-81
2024/01/24 05:35:57;;;;;;;0.00;0.00;;;;;;;;;;4984694;28;20033;-81
2024/01/24 05:38:22;;;;;;;0.00;0.00;;;;;;;;;;5016108;28;20109;-80
2024/01/24 05:40:48;;;;;;;0.00;0.00;;;;;;;;;;5034414;28;20142;-81
2024/01/24 05:43:13;;;;;;;0.00;0.00;;;;;;;;;;5033286;28;20040;-81
2024/01/24 05:45:39;;;;;;;0.00;0.00;;;;;;;;;;5030186;28;20064;-80
2024/01/24 05:48:05;;;;;;;0.00;0.00;;;;;;;;;;5034580;28;20030;-81
2024/01/24 05:50:32;;;;;;;0.00;0.00;;;;;;;;;;5034132;28;20095;-80
2024/01/24 05:52:58;;;;;;;0.00;0.00;;;;;;;;;;5011211;28;20029;-79
2024/01/24 05:55:24;;;;;;;0.00;0.00;;;;;;;;;;5031645;28;20127;-80
2024/01/24 05:57:49;;;;;;;0.00;0.00;;;;;;;;;;4985224;28;20057;-79
2024/01/24 06:00:15;;;;;;;0.00;0.00;;;;;;;;;;5016982;28;20060;-79
2024/01/24 06:02:43;;;;;;;0.00;0.00;;;;;;;;;;5005237;28;20799;-79
2024/01/24 06:05:08;;;;;;;0.00;0.00;;;;;;;;;;5004044;28;20670;-79
2024/01/24 06:07:34;;;;;;;0.00;0.00;;;;;;;;;;5010545;28;20121;-78
2024/01/24 06:10:00;;;;;;;0.00;0.00;;;;;;;;;;5027754;28;20338;-78
2024/01/24 06:12:26;;;;;;;0.00;0.00;;;;;;;;;;5013958;28;20068;-76
2024/01/24 06:14:54;;;;;;;0.00;0.00;;;;;;;;;;5019180;28;20065;-78
2024/01/24 06:17:19;;;;;;;0.00;0.00;;;;;;;;;;5033426;28;20107;-78
2024/01/24 06:19:45;;;;;;;0.00;0.00;;;;;;;;;;5028614;28;20025;-77
2024/01/24 06:22:11;;;;;;;0.00;0.00;;;;;;;;;;5003190;28;20041;-79
2024/01/24 06:24:37;;;;;;;0.00;0.00;;;;;;;;;;5027682;28;20044;-79
2024/01/24 06:27:03;;;;;;;0.00;0.00;;;;;;;;;;5006856;28;20079;-80
2024/01/24 06:29:29;;;;;;;0.00;0.00;;;;;;;;;;5010323;28;20113;-78
2024/01/24 06:31:57;;;;;;;0.00;0.00;;;;;;;;;;5016619;28;20045;-78
2024/01/24 06:34:22;;;;;;;0.00;0.00;;;;;;;;;;5010144;28;20038;-79
2024/01/24 06:36:49;;;;;;;0.00;0.00;;;;;;;;;;5011107;28;20033;-80
2024/01/24 06:39:15;;;;;;;0.00;0.00;;;;;;;;;;4993567;28;20056;-80
2024/01/24 06:41:42;;;;;;;0.00;0.00;;;;;;;;;;5012099;28;20128;-80
2024/01/24 06:44:07;;;;;;;0.00;0.00;;;;;;;;;;5023728;28;20065;-80
2024/01/24 06:46:43;;;;;;;0.00;0.00;;;;;;;;;;5028827;28;20123;-79
2024/01/24 06:49:11;;;;;;;0.00;0.00;;;;;;;;;;5009128;28;20049;-79
2024/01/24 06:51:38;;;;;;;0.00;0.00;;;;;;;;;;5012426;28;20047;-79
2024/01/24 06:54:06;;;;;;;0.00;0.00;;;;;;;;;;5030782;28;20064;-79
2024/01/24 06:56:32;;;;;;;0.00;0.00;;;;;;;;;;5022019;28;20565;-80
2024/01/24 06:58:58;;;;;;;0.00;0.00;;;;;;;;;;5029708;28;20028;-78
2024/01/24 07:01:23;;;;;;;0.00;0.00;;;;;;;;;;5011673;28;20410;-78
2024/01/24 07:03:49;;;;;;;0.00;0.00;;;;;;;;;;5032591;28;20021;-79
2024/01/24 07:06:14;;;;;;;0.00;0.00;;;;;;;;;;5034047;28;20025;-77
2024/01/24 07:08:40;;;;;;;0.00;0.00;;;;;;;;;;5022214;28;20034;-80
2024/01/24 07:11:07;;;;;;;0.00;0.00;;;;;;;;;;5016122;28;20101;-79
2024/01/24 07:13:33;;;;;;;0.00;0.00;;;;;;;;;;5031597;28;20060;-78
2024/01/24 07:16:00;;;;;;;0.00;0.00;;;;;;;;;;5024069;28;20128;-79
2024/01/24 07:18:26;;;;;;;0.00;0.00;;;;;;;;;;5030797;28;20025;-79
2024/01/24 07:20:52;;;;;;;0.00;0.00;;;;;;;;;;5030951;28;20029;-77
2024/01/24 07:23:18;;;;;;;0.00;0.00;;;;;;;;;;5023369;28;20052;-80
2024/01/24 07:25:43;;;;;;;0.00;0.00;;;;;;;;;;5024920;28;20097;-80
2024/01/24 07:28:09;;;;;;;0.00;0.00;;;;;;;;;;5013624;28;20537;-79
2024/01/24 07:30:35;;;;;;;0.00;0.00;;;;;;;;;;5016846;28;20044;-78
2024/01/24 07:33:03;;;;;;;0.00;0.00;;;;;;;;;;5012227;28;20029;-79
2024/01/24 07:35:29;;;;;;;0.00;0.00;;;;;;;;;;5027976;28;20168;-80
2024/01/24 07:37:54;;;;;;;0.00;0.00;;;;;;;;;;4987581;28;20140;-81
2024/01/24 07:40:20;;;;;;;0.00;0.00;;;;;;;;;;5013021;28;20033;-80
2024/01/24 07:42:46;;;;;;;0.00;0.00;;;;;;;;;;5028063;28;20041;-82
2024/01/24 07:45:12;;;;;;;0.00;0.00;;;;;;;;;;5026087;28;20100;-81
2024/01/24 07:47:37;;;;;;;0.00;0.00;;;;;;;;;;5006228;28;20029;-80
2024/01/24 07:50:03;;;;;;;0.00;0.00;;;;;;;;;;5011192;28;20033;-80
2024/01/24 07:52:28;;;;;;;0.00;0.00;;;;;;;;;;4977395;28;20052;-80
2024/01/24 07:54:57;;;;;;;0.00;0.00;;;;;;;;;;5013304;28;20522;-80
2024/01/24 07:57:35;;;;;;;0.00;0.00;;;;;;;;;;5021459;28;20039;-82
2024/01/24 08:00:06;;;;;;;0.00;0.00;;;;;;;;;;5039213;28;20129;-80
2024/01/24 08:02:32;;;;;;;0.15;0.00;;;;;;;;;;5017325;28;20099;-82
2024/01/24 08:04:58;;;;;;;0.00;0.00;;;;;;;;;;4999325;28;20351;-83
2024/01/24 08:07:24;;;;;;;0.00;0.00;;;;;;;;;;5030793;28;20049;-82
2024/01/24 08:09:49;;;;;;;0.00;0.00;;;;;;;;;;5016220;28;20029;-82
2024/01/24 08:12:15;;;;;;;0.00;0.00;;;;;;;;;;5032833;28;20036;-76
2024/01/24 08:14:40;;;;;;;0.00;0.00;;;;;;;;;;5013100;28;20900;-80
2024/01/24 08:17:06;;;;;;;0.00;0.00;;;;;;;;;;5013568;28;20034;-80
2024/01/24 08:19:32;;;;;;;0.00;0.00;;;;;;;;;;5030145;28;20033;-81
2024/01/24 08:21:58;;;;;;;0.00;0.00;;;;;;;;;;5031237;28;20026;-82
2024/01/24 08:24:23;;;;;;;0.00;0.00;;;;;;;;;;5016382;28;20056;-81
2024/01/24 08:26:49;;;;;;;0.00;0.00;;;;;;;;;;5023068;28;20080;-82
2024/01/24 08:29:15;;;;;;;0.00;0.00;;;;;;;;;;5033814;28;20076;-82
2024/01/24 08:31:41;;;;;;;0.00;0.00;;;;;;;;;;5017759;28;20059;-79
2024/01/24 08:34:07;;;;;;;0.00;0.00;;;;;;;;;;5035358;28;20040;-79
2024/01/24 08:36:32;;;;;;;0.00;0.00;;;;;;;;;;5002139;28;20037;-80
2024/01/24 08:38:58;;;;;;;0.00;0.00;;;;;;;;;;4999888;28;20091;-80
2024/01/24 08:41:23;;;;;;;0.00;0.00;;;;;;;;;;5017341;28;20036;-81
2024/01/24 08:43:49;;;;;;;0.00;0.00;;;;;;;;;;5035360;28;20095;-81
2024/01/24 08:46:15;;;;;;;0.00;0.00;;;;;;;;;;5033407;28;20049;-81
2024/01/24 08:48:41;;;;;;;0.00;0.00;;;;;;;;;;4998860;28;20060;-82
2024/01/24 08:51:06;;;;;;;0.00;0.00;;;;;;;;;;4981096;28;20165;-81
2024/01/24 08:53:32;;;;;;;0.00;0.00;;;;;;;;;;4998484;28;20112;-80
2024/01/24 08:55:57;;;;;;;0.00;0.00;;;;;;;;;;5013844;28;20053;-81
2024/01/24 08:58:23;;;;;;;0.00;0.00;;;;;;;;;;5013423;28;20471;-81
2024/01/24 09:00:48;;;;;;;0.00;0.00;;;;;;;;;;5030971;28;20051;-79
2024/01/24 09:03:14;;;;;;;0.00;0.00;;;;;;;;;;5011740;28;20041;-81
2024/01/24 09:05:55;;;;;;;0.00;0.00;;;;;;;;;;5010623;28;20037;-83
2024/01/24 09:08:25;;;;;;;0.00;0.00;;;;;;;;;;5015001;28;20029;-82
2024/01/24 09:10:52;;;;;;;0.00;0.00;;;;;;;;;;5019648;28;20032;-82
2024/01/24 09:13:21;;;;;;;0.00;0.00;;;;;;;;;;5041497;28;20041;-80
2024/01/24 09:15:47;;;;;;;0.00;0.00;;;;;;;;;;5027952;28;20030;-81
2024/01/24 09:18:13;;;;;;;0.00;0.00;;;;;;;;;;4992477;28;20121;-80
2024/01/24 09:20:39;;;;;;;0.00;0.00;;;;;;;;;;5031965;28;20116;-81
2024/01/24 09:23:04;;;;;;;0.00;0.00;;;;;;;;;;5031530;28;20524;-82
2024/01/24 09:25:30;;;;;;;0.00;0.00;;;;;;;;;;5028186;28;20711;-85
2024/01/24 09:27:56;;;;;;;0.00;0.00;;;;;;;;;;4996175;28;20043;-85
2024/01/24 09:30:22;;;;;;;0.00;0.00;;;;;;;;;;5005899;28;20378;-85
2024/01/24 09:32:47;;;;;;;0.00;0.00;;;;;;;;;;5011923;28;20121;-80
2024/01/24 09:35:12;;;;;;;0.00;0.00;;;;;;;;;;5028463;28;20115;-82
2024/01/24 09:37:47;;;;;;;0.00;0.00;;;;;;;;;;5013528;28;20725;-82
2024/01/24 09:40:17;;;;;;;0.00;0.00;;;;;;;;;;4985490;28;20034;-82
2024/01/24 09:42:43;;;;;;;0.00;0.00;;;;;;;;;;5006280;28;20030;-82
2024/01/24 09:45:09;;;;;;;0.00;0.00;;;;;;;;;;5041002;28;20059;-81
2024/01/24 09:47:34;;;;;;;0.00;0.00;;;;;;;;;;5035527;28;20075;-79
2024/01/24 09:50:04;;;;;;;0.00;0.00;;;;;;;;;;5006018;28;20374;-81
2024/01/24 09:52:29;;;;;;;0.00;0.00;;;;;;;;;;5024717;28;20124;-80
2024/01/24 09:55:00;;;;;;;0.00;0.00;;;;;;;;;;5014616;28;20083;-80
2024/01/24 09:57:28;;;;;;;0.00;0.00;;;;;;;;;;5028528;28;20025;-84
2024/01/24 09:59:54;;;;;;;0.00;0.00;;;;;;;;;;4995376;28;20029;-82
2024/01/24 10:02:20;;;;;;;0.00;0.00;;;;;;;;;;5023755;28;20032;-84
2024/01/24 10:04:45;;;;;;;0.00;0.00;;;;;;;;;;5015590;28;20029;-82
2024/01/24 10:07:11;;;;;;;0.00;0.00;;;;;;;;;;5017042;28;20366;-82
2024/01/24 10:09:37;;;;;;;0.00;0.00;;;;;;;;;;5019303;28;20065;-82
2024/01/24 10:12:06;;;;;;;0.00;0.00;;;;;;;;;;5029440;28;20055;-81
2024/01/24 10:14:32;;;;;;;0.00;0.00;;;;;;;;;;5017342;28;20048;-80
2024/01/24 10:16:58;;;;;;;0.00;0.00;;;;;;;;;;5028173;28;20045;-82
2024/01/24 10:19:24;;;;;;;0.00;0.00;;;;;;;;;;5030063;28;20022;-80
2024/01/24 10:21:50;;;;;;;0.00;0.00;;;;;;;;;;5031222;28;20091;-81
2024/01/24 10:24:16;;;;;;;0.00;0.00;;;;;;;;;;5027328;28;20079;-81
2024/01/24 10:26:44;;;;;;;0.00;0.00;;;;;;;;;;5015901;28;20048;-82
2024/01/24 10:29:11;;;;;;;0.00;0.00;;;;;;;;;;5032593;28;20036;-79
2024/01/24 10:31:42;;;;;;;0.00;0.00;;;;;;;;;;5032298;28;20021;-80
2024/01/24 10:34:07;;;;;;;0.00;0.00;;;;;;;;;;5032645;28;20055;-80
2024/01/24 10:36:35;;;;;;;0.00;0.00;;;;;;;;;;5030018;28;20029;-81
2024/01/24 10:39:03;;;;;;;0.00;0.00;;;;;;;;;;5010617;28;20104;-82
2024/01/24 10:41:38;;;;;;;0.00;0.00;;;;;;;;;;5031540;28;20124;-79
2024/01/24 10:44:06;;;;;;;0.00;0.00;;;;;;;;;;5008998;28;20041;-80
2024/01/24 10:46:33;;;;;;;0.00;0.00;;;;;;;;;;5012661;28;20115;-81
2024/01/24 10:48:58;;;;;;;0.00;0.00;;;;;;;;;;4999604;28;20075;-80
2024/01/24 10:51:24;;;;;;;0.00;0.00;;;;;;;;;;5033062;28;20037;-81
2024/01/24 10:53:50;;;;;;;0.00;0.00;;;;;;;;;;5000746;28;20091;-80
2024/01/24 10:56:16;;;;;;;0.00;0.00;;;;;;;;;;5018024;28;20140;-81
2024/01/24 10:58:43;;;;;;;0.00;0.00;;;;;;;;;;5029470;28;20098;-81
2024/01/24 11:01:08;;;;;;;0.00;0.00;;;;;;;;;;5005157;28;20417;-80
2024/01/24 11:03:34;;;;;;;0.00;0.00;;;;;;;;;;5021239;28;20048;-82
2024/01/24 11:06:01;;;;;;;0.00;0.00;;;;;;;;;;5011378;28;20449;-82
2024/01/24 11:08:31;;;;;;;0.00;0.00;;;;;;;;;;5002528;28;20025;-83
2024/01/24 11:10:57;;;;;;;0.00;0.00;;;;;;;;;;5033711;28;20052;-81
2024/01/24 11:13:29;;;;;;;0.00;0.00;;;;;;;;;;5005523;28;20037;-80
2024/01/24 11:16:02;;;;;;;0.00;0.00;;;;;;;;;;5020090;28;20029;-80
2024/01/24 11:18:32;;;;;;;0.00;0.00;;;;;;;;;;5030870;28;20037;-80
2024/01/24 11:21:21;;;;;;;0.00;0.00;;;;;;;;;;5051825;28;20037;-79
2024/01/24 11:23:48;;;;;;;0.00;0.00;;;;;;;;;;5016214;28;20079;-79
2024/01/24 11:26:17;;;;;;;0.00;0.00;;;;;;;;;;5033241;28;20034;-80
2024/01/24 11:28:43;;;;;;;0.00;0.00;;;;;;;;;;5036295;28;20505;-79
2024/01/24 11:31:09;;;;;;;0.00;0.00;;;;;;;;;;5023431;28;20033;-80
2024/01/24 11:33:35;;;;;;;0.00;0.00;;;;;;;;;;5034694;28;20370;-80
2024/01/24 11:36:02;;;;;;;0.00;0.00;;;;;;;;;;5036572;28;20120;-78
2024/01/24 11:38:28;;;;;;;0.00;0.00;;;;;;;;;;5011064;28;20029;-80
2024/01/24 11:41:01;;;;;;;0.00;0.00;;;;;;;;;;5008109;28;20152;-81
2024/01/24 11:43:28;;;;;;;0.00;0.00;;;;;;;;;;5006815;28;20470;-81
2024/01/24 11:46:03;;;;;;;0.00;0.00;;;;;;;;;;5029394;28;20036;-81
2024/01/24 11:48:30;;;;;;;0.00;0.00;;;;;;;;;;5032125;28;20022;-81
2024/01/24 11:51:05;;;;;;;0.00;0.00;;;;;;;;;;5033807;28;20029;-82
2024/01/24 11:53:31;;;;;;;0.00;0.00;;;;;;;;;;5038794;28;20037;-81
2024/01/24 11:55:58;;;;;;;0.00;0.00;;;;;;;;;;5019500;28;20026;-82
2024/01/24 11:58:28;;;;;;;0.00;0.00;;;;;;;;;;5033313;28;20068;-82
2024/01/24 12:01:07;;;;;;;0.00;0.00;;;;;;;;;;5013416;28;20032;-81
2024/01/24 12:03:51;;;;;;;0.00;0.00;;;;;;;;;;4991965;28;20037;-81
2024/01/24 12:06:21;;;;;;;0.00;0.00;;;;;;;;;;5030002;28;20029;-82
2024/01/24 12:08:46;;;;;;;0.00;0.00;;;;;;;;;;5030972;28;20021;-80
2024/01/24 12:11:12;;;;;;;0.00;0.00;;;;;;;;;;5032285;28;20425;-80
2024/01/24 12:13:38;;;;;;;0.00;0.00;;;;;;;;;;5014885;28;20129;-81
2024/01/24 12:16:04;;;;;;;0.00;0.00;;;;;;;;;;5016356;28;20033;-80
2024/01/24 12:18:30;;;;;;;0.00;0.00;;;;;;;;;;5017742;28;20417;-81
2024/01/24 12:20:56;;;;;;;0.00;0.00;;;;;;;;;;4985391;28;20032;-79
2024/01/24 12:23:21;;;;;;;0.00;0.00;;;;;;;;;;5032995;28;20037;-80
2024/01/24 12:25:47;;;;;;;0.00;0.00;;;;;;;;;;5023604;28;20025;-80
2024/01/24 12:28:13;;;;;;;0.00;0.00;;;;;;;;;;5014641;28;20029;-80
2024/01/24 12:30:38;;;;;;;0.00;0.00;;;;;;;;;;4979182;28;20030;-80
2024/01/24 12:33:04;;;;;;;0.00;0.00;;;;;;;;;;5011659;28;20049;-80
2024/01/24 12:35:30;;;;;;;0.00;0.00;;;;;;;;;;5012953;28;20021;-80
2024/01/24 12:38:02;;;;;;;0.00;0.00;;;;;;;;;;4995787;28;20534;-79
2024/01/24 12:40:28;;;;;;;0.00;0.00;;;;;;;;;;4994772;28;20077;-80
2024/01/24 12:42:54;;;;;;;0.00;0.00;;;;;;;;;;5012554;28;20100;-80
2024/01/24 12:45:19;;;;;;;0.00;0.00;;;;;;;;;;4980866;28;20111;-80
2024/01/24 12:47:45;;;;;;;0.00;0.00;;;;;;;;;;4981662;28;20076;-80
2024/01/24 12:50:11;;;;;;;0.00;0.00;;;;;;;;;;5015881;28;20064;-81
2024/01/24 12:52:37;;;;;;;0.00;0.00;;;;;;;;;;4998012;28;20025;-80
2024/01/24 12:55:06;;;;;;;0.00;0.00;;;;;;;;;;4998169;28;20233;-80
2024/01/24 12:57:32;;;;;;;0.00;0.00;;;;;;;;;;4998284;28;20026;-83
2024/01/24 12:59:57;;;;;;;0.00;0.00;;;;;;;;;;5014553;28;20394;-80
2024/01/24 13:02:24;;;;;;;0.00;0.00;;;;;;;;;;5001233;28;20357;-80
2024/01/24 13:04:49;;;;;;;0.00;0.00;;;;;;;;;;4990008;28;20029;-80
2024/01/24 13:07:15;;;;;;;0.00;0.00;;;;;;;;;;4993996;28;20029;-81
2024/01/24 13:09:40;;;;;;;0.00;0.00;;;;;;;;;;5002583;28;20057;-80
2024/01/24 13:12:06;;;;;;;0.00;0.00;;;;;;;;;;5035834;28;20108;-81
2024/01/24 13:14:32;;;;;;;0.00;0.00;;;;;;;;;;5017495;28;20033;-81
2024/01/24 13:16:59;;;;;;;0.00;0.00;;;;;;;;;;5033923;28;20072;-81
2024/01/24 13:19:25;;;;;;;0.00;0.00;;;;;;;;;;5017697;28;20033;-82
2024/01/24 13:21:50;;;;;;;0.00;0.00;;;;;;;;;;5000661;28;20500;-82
2024/01/24 13:24:16;;;;;;;0.00;0.00;;;;;;;;;;5041764;28;20043;-82
2024/01/24 13:26:42;;;;;;;0.00;0.00;;;;;;;;;;5054798;28;20031;-82
2024/01/24 13:29:07;;;;;;;0.00;0.00;;;;;;;;;;5036735;28;20444;-82
2024/01/24 13:31:34;;;;;;;0.00;0.00;;;;;;;;;;5055010;28;20446;-82
2024/01/24 13:34:00;;;;;;;0.00;0.00;;;;;;;;;;5054615;28;20025;-81
2024/01/24 13:36:26;;;;;;;0.00;0.00;;;;;;;;;;5036627;28;20111;-82
2024/01/24 13:38:51;;;;;;;0.00;0.00;;;;;;;;;;5020602;28;20131;-80
2024/01/24 13:41:17;;;;;;;0.00;0.00;;;;;;;;;;5054637;28;20446;-80
2024/01/24 13:43:43;;;;;;;0.00;0.00;;;;;;;;;;5036794;28;20029;-81
2024/01/24 13:46:10;;;;;;;0.00;0.00;;;;;;;;;;5054553;28;20082;-81
2024/01/24 13:48:35;;;;;;;0.00;0.00;;;;;;;;;;5036925;28;20124;-81
2024/01/24 13:51:01;;;;;;;0.00;0.00;;;;;;;;;;5036222;28;20486;-81
2024/01/24 13:53:26;;;;;;;0.00;0.00;;;;;;;;;;5020007;28;20470;-80
2024/01/24 13:55:52;;;;;;;0.00;0.00;;;;;;;;;;5054471;28;20025;-79
2024/01/24 13:58:17;;;;;;;0.00;0.00;;;;;;;;;;5036871;28;20035;-78
2024/01/24 14:00:43;;;;;;;0.00;0.00;;;;;;;;;;5054356;28;20036;-78
2024/01/24 14:03:08;;;;;;;0.00;0.00;;;;;;;;;;5044693;28;20033;-77
2024/01/24 14:05:34;;;;;;;0.00;0.00;;;;;;;;;;4984166;28;20026;-78
2024/01/24 14:07:59;;;;;;;0.00;0.00;;;;;;;;;;5024060;28;20024;-77
2024/01/24 14:10:25;;;;;;;0.00;0.00;;;;;;;;;;5034387;28;20041;-78
2024/01/24 14:12:51;;;;;;;0.00;0.00;;;;;;;;;;5034035;28;20021;-78
2024/01/24 14:15:17;;;;;;;0.00;0.00;;;;;;;;;;5034494;28;20159;-78
2024/01/24 14:17:42;;;;;;;0.00;0.00;;;;;;;;;;5016581;28;20065;-81
2024/01/24 14:20:10;;;;;;;0.00;0.00;;;;;;;;;;5033577;28;20060;-78
2024/01/24 14:22:36;;;;;;;0.00;0.00;;;;;;;;;;5032855;28;20438;-78
2024/01/24 14:25:01;;;;;;;0.00;0.00;;;;;;;;;;5032961;28;20064;-78
2024/01/24 14:27:27;;;;;;;0.00;0.00;;;;;;;;;;5015697;28;20064;-79
2024/01/24 14:29:54;;;;;;;0.00;0.00;;;;;;;;;;5033952;28;20033;-77
2024/01/24 14:32:20;;;;;;;0.00;0.00;;;;;;;;;;5016634;28;20036;-79
2024/01/24 14:34:45;;;;;;;0.00;0.00;;;;;;;;;;4996289;28;20390;-79
2024/01/24 14:37:11;;;;;;;0.00;0.00;;;;;;;;;;4996572;28;20076;-81